sensor_id;sensor_type;location;lat;lon;timestamp;temperature;humidity
5711;DHT22;61291;52.524;13.422;2022-07-10T00:01:30;13.90;89.60
5711;DHT22;61291;52.524;13.422;2022-07-10T00:03:56;14.10;89.40
5711;DHT22;61291;52.524;13.422;2022-07-10T00:06:21;14.20;89.20
5711;DHT22;61291;52.524;13.422;2022-07-10T00:08:47;14.40;88.90
5711;DHT22;61291;52.524;13.422;2022-07-10T00:11:12;14.50;88.40
5711;DHT22;61291;52.524;13.422;2022-07-10T00:13:38;14.60;88.30
5711;DHT22;61291;52.524;13.422;2022-07-10T00:16:04;14.60;87.80
5711;DHT22;61291;52.524;13.422;2022-07-10T00:18:30;14.70;87.70
5711;DHT22;61291;52.524;13.422;2022-07-10T00:20:55;14.70;87.70
5711;DHT22;61291;52.524;13.422;2022-07-10T00:23:21;14.80;87.80
5711;DHT22;61291;52.524;13.422;2022-07-10T00:25:46;14.80;88.20
5711;DHT22;61291;52.524;13.422;2022-07-10T00:28:12;14.80;87.30
5711;DHT22;61291;52.524;13.422;2022-07-10T00:30:38;14.90;87.20
5711;DHT22;61291;52.524;13.422;2022-07-10T00:33:04;14.90;87.20
5711;DHT22;61291;52.524;13.422;2022-07-10T00:35:29;14.90;87.10
5711;DHT22;61291;52.524;13.422;2022-07-10T00:37:55;14.90;87.10
5711;DHT22;61291;52.524;13.422;2022-07-10T00:40:21;15.00;87.10
5711;DHT22;61291;52.524;13.422;2022-07-10T00:42:46;15.00;87.00
5711;DHT22;61291;52.524;13.422;2022-07-10T00:45:12;15.00;87.00
5711;DHT22;61291;52.524;13.422;2022-07-10T00:47:46;15.00;87.20
5711;DHT22;61291;52.524;13.422;2022-07-10T00:50:12;15.10;86.90
5711;DHT22;61291;52.524;13.422;2022-07-10T00:52:38;15.10;86.80
5711;DHT22;61291;52.524;13.422;2022-07-10T00:55:07;15.10;86.60
5711;DHT22;61291;52.524;13.422;2022-07-10T00:57:35;15.10;86.30
5711;DHT22;61291;52.524;13.422;2022-07-10T01:00:01;15.00;86.20
5711;DHT22;61291;52.524;13.422;2022-07-10T01:02:27;15.10;86.30
5711;DHT22;61291;52.524;13.422;2022-07-10T01:04:56;15.10;86.20
5711;DHT22;61291;52.524;13.422;2022-07-10T01:07:23;15.00;86.20
5711;DHT22;61291;52.524;13.422;2022-07-10T01:09:56;15.00;86.30
5711;DHT22;61291;52.524;13.422;2022-07-10T01:12:22;15.00;86.30
5711;DHT22;61291;52.524;13.422;2022-07-10T01:14:48;15.00;86.30
5711;DHT22;61291;52.524;13.422;2022-07-10T01:17:13;15.00;86.30
5711;DHT22;61291;52.524;13.422;2022-07-10T01:23:01;15.00;86.30
5711;DHT22;61291;52.524;13.422;2022-07-10T01:25:27;15.00;86.40
5711;DHT22;61291;52.524;13.422;2022-07-10T01:27:53;15.00;86.50
5711;DHT22;61291;52.524;13.422;2022-07-10T01:30:19;15.00;86.70
5711;DHT22;61291;52.524;13.422;2022-07-10T01:32:46;15.00;86.60
5711;DHT22;61291;52.524;13.422;2022-07-10T01:35:12;15.00;86.80
5711;DHT22;61291;52.524;13.422;2022-07-10T01:37:39;15.00;86.80
5711;DHT22;61291;52.524;13.422;2022-07-10T01:40:06;15.00;86.80
5711;DHT22;61291;52.524;13.422;2022-07-10T01:42:31;15.00;86.70
5711;DHT22;61291;52.524;13.422;2022-07-10T01:44:57;15.00;86.80
5711;DHT22;61291;52.524;13.422;2022-07-10T01:47:23;15.00;86.90
5711;DHT22;61291;52.524;13.422;2022-07-10T01:49:50;15.00;87.00
5711;DHT22;61291;52.524;13.422;2022-07-10T01:52:16;15.00;87.10
5711;DHT22;61291;52.524;13.422;2022-07-10T01:54:42;15.00;87.00
5711;DHT22;61291;52.524;13.422;2022-07-10T01:57:08;14.90;87.10
5711;DHT22;61291;52.524;13.422;2022-07-10T01:59:34;14.90;87.10
5711;DHT22;61291;52.524;13.422;2022-07-10T02:01:59;14.90;87.10
5711;DHT22;61291;52.524;13.422;2022-07-10T02:04:25;14.90;87.30
5711;DHT22;61291;52.524;13.422;2022-07-10T02:07:14;15.00;87.50
5711;DHT22;61291;52.524;13.422;2022-07-10T02:09:41;15.00;87.20
5711;DHT22;61291;52.524;13.422;2022-07-10T02:12:11;14.90;87.40
5711;DHT22;61291;52.524;13.422;2022-07-10T02:14:37;14.90;87.20
5711;DHT22;61291;52.524;13.422;2022-07-10T02:17:04;14.90;87.40
5711;DHT22;61291;52.524;13.422;2022-07-10T02:19:29;14.90;87.70
5711;DHT22;61291;52.524;13.422;2022-07-10T02:21:55;14.80;87.60
5711;DHT22;61291;52.524;13.422;2022-07-10T02:24:21;14.80;87.60
5711;DHT22;61291;52.524;13.422;2022-07-10T02:26:46;14.80;88.00
5711;DHT22;61291;52.524;13.422;2022-07-10T02:29:12;14.80;88.00
5711;DHT22;61291;52.524;13.422;2022-07-10T02:31:37;14.80;88.00
5711;DHT22;61291;52.524;13.422;2022-07-10T02:34:12;14.70;88.70
5711;DHT22;61291;52.524;13.422;2022-07-10T02:36:38;14.70;88.80
5711;DHT22;61291;52.524;13.422;2022-07-10T02:39:05;14.60;88.70
5711;DHT22;61291;52.524;13.422;2022-07-10T02:41:31;14.60;89.10
5711;DHT22;61291;52.524;13.422;2022-07-10T02:43:56;14.50;89.80
5711;DHT22;61291;52.524;13.422;2022-07-10T02:46:22;14.50;90.00
5711;DHT22;61291;52.524;13.422;2022-07-10T02:48:47;14.50;90.10
5711;DHT22;61291;52.524;13.422;2022-07-10T02:51:14;14.40;90.20
5711;DHT22;61291;52.524;13.422;2022-07-10T02:53:40;14.40;90.30
5711;DHT22;61291;52.524;13.422;2022-07-10T02:56:05;14.30;90.40
5711;DHT22;61291;52.524;13.422;2022-07-10T02:58:32;14.30;90.60
5711;DHT22;61291;52.524;13.422;2022-07-10T03:00:58;14.30;90.60
5711;DHT22;61291;52.524;13.422;2022-07-10T03:03:23;14.20;90.70
5711;DHT22;61291;52.524;13.422;2022-07-10T03:05:49;14.30;91.00
5711;DHT22;61291;52.524;13.422;2022-07-10T03:08:14;14.30;91.10
5711;DHT22;61291;52.524;13.422;2022-07-10T03:10:40;14.30;91.00
5711;DHT22;61291;52.524;13.422;2022-07-10T03:13:06;14.30;90.90
5711;DHT22;61291;52.524;13.422;2022-07-10T03:15:31;14.30;91.10
5711;DHT22;61291;52.524;13.422;2022-07-10T03:17:57;14.30;91.10
5711;DHT22;61291;52.524;13.422;2022-07-10T03:20:22;14.30;91.10
5711;DHT22;61291;52.524;13.422;2022-07-10T03:22:48;14.30;91.10
5711;DHT22;61291;52.524;13.422;2022-07-10T03:25:14;14.30;91.30
5711;DHT22;61291;52.524;13.422;2022-07-10T03:27:40;14.30;91.20
5711;DHT22;61291;52.524;13.422;2022-07-10T03:30:06;14.30;91.30
5711;DHT22;61291;52.524;13.422;2022-07-10T03:32:32;14.40;91.30
5711;DHT22;61291;52.524;13.422;2022-07-10T03:34:58;14.40;91.30
5711;DHT22;61291;52.524;13.422;2022-07-10T03:37:24;14.50;91.60
5711;DHT22;61291;52.524;13.422;2022-07-10T03:39:50;14.60;91.50
5711;DHT22;61291;52.524;13.422;2022-07-10T03:42:16;14.60;91.40
5711;DHT22;61291;52.524;13.422;2022-07-10T03:44:41;14.70;91.40
5711;DHT22;61291;52.524;13.422;2022-07-10T03:47:07;14.80;91.30
5711;DHT22;61291;52.524;13.422;2022-07-10T03:49:33;14.90;91.20
5711;DHT22;61291;52.524;13.422;2022-07-10T03:51:59;15.00;91.20
5711;DHT22;61291;52.524;13.422;2022-07-10T03:54:26;15.10;91.10
5711;DHT22;61291;52.524;13.422;2022-07-10T03:56:51;15.10;91.00
5711;DHT22;61291;52.524;13.422;2022-07-10T03:59:36;15.20;90.90
5711;DHT22;61291;52.524;13.422;2022-07-10T04:02:01;15.30;90.90
5711;DHT22;61291;52.524;13.422;2022-07-10T04:04:27;15.30;90.90
5711;DHT22;61291;52.524;13.422;2022-07-10T04:06:53;15.30;90.90
5711;DHT22;61291;52.524;13.422;2022-07-10T04:09:18;15.40;90.80
5711;DHT22;61291;52.524;13.422;2022-07-10T04:11:44;15.30;90.80
5711;DHT22;61291;52.524;13.422;2022-07-10T04:14:09;15.30;90.80
5711;DHT22;61291;52.524;13.422;2022-07-10T04:16:35;15.40;90.80
5711;DHT22;61291;52.524;13.422;2022-07-10T04:19:00;15.30;90.80
5711;DHT22;61291;52.524;13.422;2022-07-10T04:21:25;15.50;90.80
5711;DHT22;61291;52.524;13.422;2022-07-10T04:23:51;15.60;90.70
5711;DHT22;61291;52.524;13.422;2022-07-10T04:26:16;15.60;90.60
5711;DHT22;61291;52.524;13.422;2022-07-10T04:28:42;15.70;90.50
5711;DHT22;61291;52.524;13.422;2022-07-10T04:31:07;15.70;90.40
5711;DHT22;61291;52.524;13.422;2022-07-10T04:33:33;15.70;90.40
5711;DHT22;61291;52.524;13.422;2022-07-10T04:35:59;15.60;90.40
5711;DHT22;61291;52.524;13.422;2022-07-10T04:38:25;15.50;90.50
5711;DHT22;61291;52.524;13.422;2022-07-10T04:40:50;15.50;90.50
5711;DHT22;61291;52.524;13.422;2022-07-10T04:43:16;15.70;90.50
5711;DHT22;61291;52.524;13.422;2022-07-10T04:45:41;15.90;90.40
5711;DHT22;61291;52.524;13.422;2022-07-10T04:48:07;15.90;90.30
5711;DHT22;61291;52.524;13.422;2022-07-10T04:50:32;16.10;90.10
5711;DHT22;61291;52.524;13.422;2022-07-10T04:52:58;16.40;90.00
5711;DHT22;61291;52.524;13.422;2022-07-10T04:55:23;16.60;89.40
5711;DHT22;61291;52.524;13.422;2022-07-10T04:57:49;16.80;88.60
5711;DHT22;61291;52.524;13.422;2022-07-10T05:00:15;16.90;88.10
5711;DHT22;61291;52.524;13.422;2022-07-10T05:02:42;17.10;87.90
5711;DHT22;61291;52.524;13.422;2022-07-10T05:05:07;17.00;86.80
5711;DHT22;61291;52.524;13.422;2022-07-10T05:07:33;17.10;86.70
5711;DHT22;61291;52.524;13.422;2022-07-10T05:09:59;17.10;86.80
5711;DHT22;61291;52.524;13.422;2022-07-10T05:12:25;16.90;86.60
5711;DHT22;61291;52.524;13.422;2022-07-10T05:14:50;16.40;87.70
5711;DHT22;61291;52.524;13.422;2022-07-10T05:17:16;16.60;87.60
5711;DHT22;61291;52.524;13.422;2022-07-10T05:19:41;16.90;87.60
5711;DHT22;61291;52.524;13.422;2022-07-10T05:22:07;16.80;87.20
5711;DHT22;61291;52.524;13.422;2022-07-10T05:24:34;16.90;87.00
5711;DHT22;61291;52.524;13.422;2022-07-10T05:27:00;16.90;86.60
5711;DHT22;61291;52.524;13.422;2022-07-10T05:29:26;17.10;86.80
5711;DHT22;61291;52.524;13.422;2022-07-10T05:31:51;16.90;86.80
5711;DHT22;61291;52.524;13.422;2022-07-10T05:34:17;17.00;87.10
5711;DHT22;61291;52.524;13.422;2022-07-10T05:36:42;17.60;85.90
5711;DHT22;61291;52.524;13.422;2022-07-10T05:39:08;18.00;83.70
5711;DHT22;61291;52.524;13.422;2022-07-10T05:41:34;18.10;83.50
5711;DHT22;61291;52.524;13.422;2022-07-10T05:43:59;18.00;83.30
5711;DHT22;61291;52.524;13.422;2022-07-10T05:46:25;17.90;83.50
5711;DHT22;61291;52.524;13.422;2022-07-10T05:48:51;18.20;83.50
5711;DHT22;61291;52.524;13.422;2022-07-10T05:51:16;17.80;83.40
5711;DHT22;61291;52.524;13.422;2022-07-10T05:53:42;17.80;83.30
5711;DHT22;61291;52.524;13.422;2022-07-10T05:56:07;17.60;83.70
5711;DHT22;61291;52.524;13.422;2022-07-10T05:58:33;17.50;83.80
5711;DHT22;61291;52.524;13.422;2022-07-10T06:00:58;17.50;83.90
5711;DHT22;61291;52.524;13.422;2022-07-10T06:03:24;17.70;83.70
5711;DHT22;61291;52.524;13.422;2022-07-10T06:05:50;17.90;83.10
5711;DHT22;61291;52.524;13.422;2022-07-10T06:08:15;17.80;83.00
5711;DHT22;61291;52.524;13.422;2022-07-10T06:10:41;17.60;82.90
5711;DHT22;61291;52.524;13.422;2022-07-10T06:13:09;17.70;83.00
5711;DHT22;61291;52.524;13.422;2022-07-10T06:15:35;17.80;83.00
5711;DHT22;61291;52.524;13.422;2022-07-10T06:18:00;17.80;82.90
5711;DHT22;61291;52.524;13.422;2022-07-10T06:20:26;17.90;82.40
5711;DHT22;61291;52.524;13.422;2022-07-10T06:22:51;17.60;82.60
5711;DHT22;61291;52.524;13.422;2022-07-10T06:25:17;17.40;82.90
5711;DHT22;61291;52.524;13.422;2022-07-10T06:27:43;17.50;83.20
5711;DHT22;61291;52.524;13.422;2022-07-10T06:30:08;17.80;83.10
5711;DHT22;61291;52.524;13.422;2022-07-10T06:32:34;18.10;82.30
5711;DHT22;61291;52.524;13.422;2022-07-10T06:35:00;18.10;81.40
5711;DHT22;61291;52.524;13.422;2022-07-10T06:37:25;18.10;80.90
5711;DHT22;61291;52.524;13.422;2022-07-10T06:39:51;18.10;80.90
5711;DHT22;61291;52.524;13.422;2022-07-10T06:42:16;18.60;80.30
5711;DHT22;61291;52.524;13.422;2022-07-10T06:44:43;18.90;79.40
5711;DHT22;61291;52.524;13.422;2022-07-10T06:47:09;19.10;78.60
5711;DHT22;61291;52.524;13.422;2022-07-10T06:49:54;19.10;78.20
5711;DHT22;61291;52.524;13.422;2022-07-10T06:52:20;18.60;78.90
5711;DHT22;61291;52.524;13.422;2022-07-10T06:54:46;18.60;78.90
5711;DHT22;61291;52.524;13.422;2022-07-10T06:57:12;18.80;78.60
5711;DHT22;61291;52.524;13.422;2022-07-10T06:59:38;19.00;77.90
5711;DHT22;61291;52.524;13.422;2022-07-10T07:02:04;18.60;78.10
5711;DHT22;61291;52.524;13.422;2022-07-10T07:04:29;19.10;77.80
5711;DHT22;61291;52.524;13.422;2022-07-10T07:06:55;19.80;77.40
5711;DHT22;61291;52.524;13.422;2022-07-10T07:09:20;20.10;76.30
5711;DHT22;61291;52.524;13.422;2022-07-10T07:11:46;20.80;75.70
5711;DHT22;61291;52.524;13.422;2022-07-10T07:14:12;21.50;74.80
5711;DHT22;61291;52.524;13.422;2022-07-10T07:16:37;22.00;72.50
5711;DHT22;61291;52.524;13.422;2022-07-10T07:19:05;22.10;70.70
5711;DHT22;61291;52.524;13.422;2022-07-10T07:21:31;22.00;70.20
5711;DHT22;61291;52.524;13.422;2022-07-10T07:24:16;22.50;69.50
5711;DHT22;61291;52.524;13.422;2022-07-10T07:26:47;22.50;68.00
5711;DHT22;61291;52.524;13.422;2022-07-10T07:29:21;22.70;67.70
5711;DHT22;61291;52.524;13.422;2022-07-10T07:31:53;22.60;67.40
5711;DHT22;61291;52.524;13.422;2022-07-10T07:34:20;23.00;67.00
5711;DHT22;61291;52.524;13.422;2022-07-10T07:36:46;23.50;66.50
5711;DHT22;61291;52.524;13.422;2022-07-10T07:39:11;23.80;65.30
5711;DHT22;61291;52.524;13.422;2022-07-10T07:41:37;24.10;64.20
5711;DHT22;61291;52.524;13.422;2022-07-10T07:44:02;24.50;63.60
5711;DHT22;61291;52.524;13.422;2022-07-10T07:46:28;24.30;62.50
5711;DHT22;61291;52.524;13.422;2022-07-10T07:48:53;24.00;61.40
5711;DHT22;61291;52.524;13.422;2022-07-10T07:51:19;24.10;61.20
5711;DHT22;61291;52.524;13.422;2022-07-10T07:53:44;24.00;60.60
5711;DHT22;61291;52.524;13.422;2022-07-10T07:56:10;23.50;61.30
5711;DHT22;61291;52.524;13.422;2022-07-10T07:58:35;22.50;60.60
5711;DHT22;61291;52.524;13.422;2022-07-10T08:01:01;21.90;61.60
5711;DHT22;61291;52.524;13.422;2022-07-10T08:03:26;21.90;61.10
5711;DHT22;61291;52.524;13.422;2022-07-10T08:05:52;22.30;61.80
5711;DHT22;61291;52.524;13.422;2022-07-10T08:08:27;22.50;61.80
5711;DHT22;61291;52.524;13.422;2022-07-10T08:10:53;22.60;61.70
5711;DHT22;61291;52.524;13.422;2022-07-10T08:13:18;23.30;61.00
5711;DHT22;61291;52.524;13.422;2022-07-10T08:15:43;22.70;61.00
5711;DHT22;61291;52.524;13.422;2022-07-10T08:18:09;22.40;60.80
5711;DHT22;61291;52.524;13.422;2022-07-10T08:20:34;21.90;61.90
5711;DHT22;61291;52.524;13.422;2022-07-10T08:23:00;21.70;61.80
5711;DHT22;61291;52.524;13.422;2022-07-10T08:25:27;21.80;61.80
5711;DHT22;61291;52.524;13.422;2022-07-10T08:28:00;21.80;61.50
5711;DHT22;61291;52.524;13.422;2022-07-10T08:30:26;22.70;60.90
5711;DHT22;61291;52.524;13.422;2022-07-10T08:32:51;22.40;60.90
5711;DHT22;61291;52.524;13.422;2022-07-10T08:35:17;22.80;60.40
5711;DHT22;61291;52.524;13.422;2022-07-10T08:37:44;22.10;60.10
5711;DHT22;61291;52.524;13.422;2022-07-10T08:40:13;21.20;61.40
5711;DHT22;61291;52.524;13.422;2022-07-10T08:42:39;20.80;63.30
5711;DHT22;61291;52.524;13.422;2022-07-10T08:45:06;19.80;63.90
5711;DHT22;61291;52.524;13.422;2022-07-10T08:47:35;20.90;63.80
5711;DHT22;61291;52.524;13.422;2022-07-10T08:50:02;21.60;63.30
5711;DHT22;61291;52.524;13.422;2022-07-10T08:52:39;22.30;62.70
5711;DHT22;61291;52.524;13.422;2022-07-10T08:55:06;23.20;62.40
5711;DHT22;61291;52.524;13.422;2022-07-10T08:57:33;23.80;61.00
5711;DHT22;61291;52.524;13.422;2022-07-10T08:59:59;23.90;60.50
5711;DHT22;61291;52.524;13.422;2022-07-10T09:02:25;23.70;60.30
5711;DHT22;61291;52.524;13.422;2022-07-10T09:04:50;23.30;60.90
5711;DHT22;61291;52.524;13.422;2022-07-10T09:07:16;23.40;61.20
5711;DHT22;61291;52.524;13.422;2022-07-10T09:09:53;23.60;61.20
5711;DHT22;61291;52.524;13.422;2022-07-10T09:12:21;23.30;60.30
5711;DHT22;61291;52.524;13.422;2022-07-10T09:14:47;23.00;60.10
5711;DHT22;61291;52.524;13.422;2022-07-10T09:17:13;23.10;60.40
5711;DHT22;61291;52.524;13.422;2022-07-10T09:19:39;22.70;59.70
5711;DHT22;61291;52.524;13.422;2022-07-10T09:22:07;22.40;59.30
5711;DHT22;61291;52.524;13.422;2022-07-10T09:24:37;21.70;59.30
5711;DHT22;61291;52.524;13.422;2022-07-10T09:27:03;22.40;58.80
5711;DHT22;61291;52.524;13.422;2022-07-10T09:29:44;22.10;59.10
5711;DHT22;61291;52.524;13.422;2022-07-10T09:32:11;21.40;59.00
5711;DHT22;61291;52.524;13.422;2022-07-10T09:34:40;22.40;58.80
5711;DHT22;61291;52.524;13.422;2022-07-10T09:37:28;22.90;58.60
5711;DHT22;61291;52.524;13.422;2022-07-10T09:40:00;22.90;58.20
5711;DHT22;61291;52.524;13.422;2022-07-10T09:42:33;23.50;58.00
5711;DHT22;61291;52.524;13.422;2022-07-10T09:47:58;24.30;58.00
5711;DHT22;61291;52.524;13.422;2022-07-10T09:50:33;24.60;56.80
5711;DHT22;61291;52.524;13.422;2022-07-10T09:53:03;24.40;56.20
5711;DHT22;61291;52.524;13.422;2022-07-10T09:55:31;24.80;56.30
5711;DHT22;61291;52.524;13.422;2022-07-10T09:57:59;25.00;56.40
5711;DHT22;61291;52.524;13.422;2022-07-10T10:00:31;25.10;56.30
5711;DHT22;61291;52.524;13.422;2022-07-10T10:03:00;25.60;55.80
5711;DHT22;61291;52.524;13.422;2022-07-10T10:08:11;25.40;55.90
5711;DHT22;61291;52.524;13.422;2022-07-10T10:10:42;25.60;56.20
5711;DHT22;61291;52.524;13.422;2022-07-10T10:13:10;24.20;56.40
5711;DHT22;61291;52.524;13.422;2022-07-10T10:15:37;25.20;55.20
5711;DHT22;61291;52.524;13.422;2022-07-10T10:18:03;25.50;55.30
5711;DHT22;61291;52.524;13.422;2022-07-10T10:20:30;25.10;55.40
5711;DHT22;61291;52.524;13.422;2022-07-10T10:23:06;25.00;55.30
5711;DHT22;61291;52.524;13.422;2022-07-10T10:25:34;24.70;55.50
5711;DHT22;61291;52.524;13.422;2022-07-10T10:28:02;24.40;55.80
5711;DHT22;61291;52.524;13.422;2022-07-10T10:30:29;24.30;56.00
5711;DHT22;61291;52.524;13.422;2022-07-10T10:32:55;23.70;56.80
5711;DHT22;61291;52.524;13.422;2022-07-10T10:35:44;24.10;56.50
5711;DHT22;61291;52.524;13.422;2022-07-10T10:38:14;24.30;55.80
5711;DHT22;61291;52.524;13.422;2022-07-10T10:40:40;24.90;56.00
5711;DHT22;61291;52.524;13.422;2022-07-10T10:43:23;26.00;54.70
5711;DHT22;61291;52.524;13.422;2022-07-10T10:45:49;26.70;54.50
5711;DHT22;61291;52.524;13.422;2022-07-10T10:48:16;27.00;53.40
5711;DHT22;61291;52.524;13.422;2022-07-10T10:50:52;26.80;53.10
5711;DHT22;61291;52.524;13.422;2022-07-10T10:53:25;26.10;53.80
5711;DHT22;61291;52.524;13.422;2022-07-10T10:58:25;25.90;53.10
5711;DHT22;61291;52.524;13.422;2022-07-10T11:00:51;24.90;54.00
5711;DHT22;61291;52.524;13.422;2022-07-10T11:03:19;24.30;54.40
5711;DHT22;61291;52.524;13.422;2022-07-10T11:05:46;24.30;54.80
5711;DHT22;61291;52.524;13.422;2022-07-10T11:08:13;24.10;54.90
5711;DHT22;61291;52.524;13.422;2022-07-10T11:10:41;22.90;55.10
5711;DHT22;61291;52.524;13.422;2022-07-10T11:13:16;23.30;55.80
5711;DHT22;61291;52.524;13.422;2022-07-10T11:15:44;23.80;55.70
5711;DHT22;61291;52.524;13.422;2022-07-10T11:18:11;23.00;54.80
5711;DHT22;61291;52.524;13.422;2022-07-10T11:20:42;23.70;55.60
5711;DHT22;61291;52.524;13.422;2022-07-10T11:23:55;23.60;55.70
5711;DHT22;61291;52.524;13.422;2022-07-10T11:26:35;24.40;54.30
5711;DHT22;61291;52.524;13.422;2022-07-10T11:29:03;25.40;53.70
5711;DHT22;61291;52.524;13.422;2022-07-10T11:31:30;25.50;53.90
5711;DHT22;61291;52.524;13.422;2022-07-10T11:34:00;25.20;54.10
5711;DHT22;61291;52.524;13.422;2022-07-10T11:36:26;24.50;55.10
5711;DHT22;61291;52.524;13.422;2022-07-10T11:39:07;25.10;55.50
5711;DHT22;61291;52.524;13.422;2022-07-10T11:41:42;24.80;54.60
5711;DHT22;61291;52.524;13.422;2022-07-10T11:44:13;24.40;55.00
5711;DHT22;61291;52.524;13.422;2022-07-10T11:46:39;24.20;55.70
5711;DHT22;61291;52.524;13.422;2022-07-10T11:49:06;24.50;55.10
5711;DHT22;61291;52.524;13.422;2022-07-10T11:51:38;23.50;55.40
5711;DHT22;61291;52.524;13.422;2022-07-10T11:54:15;24.60;54.80
5711;DHT22;61291;52.524;13.422;2022-07-10T11:56:48;25.60;54.00
5711;DHT22;61291;52.524;13.422;2022-07-10T11:59:15;24.90;54.60
5711;DHT22;61291;52.524;13.422;2022-07-10T12:01:46;24.70;54.70
5711;DHT22;61291;52.524;13.422;2022-07-10T12:04:13;24.10;55.20
5711;DHT22;61291;52.524;13.422;2022-07-10T12:06:41;23.30;55.80
5711;DHT22;61291;52.524;13.422;2022-07-10T12:09:10;23.30;56.00
5711;DHT22;61291;52.524;13.422;2022-07-10T12:11:36;22.50;56.90
5711;DHT22;61291;52.524;13.422;2022-07-10T12:14:10;22.90;57.00
5711;DHT22;61291;52.524;13.422;2022-07-10T12:16:37;22.70;56.40
5711;DHT22;61291;52.524;13.422;2022-07-10T12:19:06;23.40;56.20
5711;DHT22;61291;52.524;13.422;2022-07-10T12:21:32;23.10;55.60
5711;DHT22;61291;52.524;13.422;2022-07-10T12:23:58;23.10;56.00
5711;DHT22;61291;52.524;13.422;2022-07-10T12:26:35;23.70;55.90
5711;DHT22;61291;52.524;13.422;2022-07-10T12:29:01;23.00;55.70
5711;DHT22;61291;52.524;13.422;2022-07-10T12:31:29;23.40;55.90
5711;DHT22;61291;52.524;13.422;2022-07-10T12:33:56;22.80;56.40
5711;DHT22;61291;52.524;13.422;2022-07-10T12:36:48;22.80;56.90
5711;DHT22;61291;52.524;13.422;2022-07-10T12:39:25;23.60;55.80
5711;DHT22;61291;52.524;13.422;2022-07-10T12:41:54;24.40;55.60
5711;DHT22;61291;52.524;13.422;2022-07-10T12:47:10;24.10;55.20
5711;DHT22;61291;52.524;13.422;2022-07-10T12:49:57;23.50;55.70
5711;DHT22;61291;52.524;13.422;2022-07-10T12:52:31;24.00;55.80
5711;DHT22;61291;52.524;13.422;2022-07-10T12:55:09;24.50;55.40
5711;DHT22;61291;52.524;13.422;2022-07-10T12:57:57;24.90;55.10
5711;DHT22;61291;52.524;13.422;2022-07-10T13:00:24;24.60;54.90
5711;DHT22;61291;52.524;13.422;2022-07-10T13:03:02;24.40;54.90
5711;DHT22;61291;52.524;13.422;2022-07-10T13:05:38;23.30;55.60
5711;DHT22;61291;52.524;13.422;2022-07-10T13:08:06;23.40;56.20
5711;DHT22;61291;52.524;13.422;2022-07-10T13:10:37;24.00;56.00
5711;DHT22;61291;52.524;13.422;2022-07-10T13:13:05;24.80;55.60
5711;DHT22;61291;52.524;13.422;2022-07-10T13:15:32;25.20;54.90
5711;DHT22;61291;52.524;13.422;2022-07-10T13:18:05;25.20;54.70
5711;DHT22;61291;52.524;13.422;2022-07-10T13:20:30;24.10;55.20
5711;DHT22;61291;52.524;13.422;2022-07-10T13:22:56;24.20;55.40
5711;DHT22;61291;52.524;13.422;2022-07-10T13:25:21;24.40;55.30
5711;DHT22;61291;52.524;13.422;2022-07-10T13:27:47;24.40;55.40
5711;DHT22;61291;52.524;13.422;2022-07-10T13:30:13;24.30;55.20
5711;DHT22;61291;52.524;13.422;2022-07-10T13:32:38;24.20;55.30
5711;DHT22;61291;52.524;13.422;2022-07-10T13:35:05;24.80;55.00
5711;DHT22;61291;52.524;13.422;2022-07-10T13:37:30;24.20;54.70
5711;DHT22;61291;52.524;13.422;2022-07-10T13:40:00;24.50;54.70
5711;DHT22;61291;52.524;13.422;2022-07-10T13:42:28;24.10;54.90
5711;DHT22;61291;52.524;13.422;2022-07-10T13:45:13;24.80;55.00
5711;DHT22;61291;52.524;13.422;2022-07-10T13:47:39;25.20;54.40
5711;DHT22;61291;52.524;13.422;2022-07-10T13:50:06;25.10;54.30
5711;DHT22;61291;52.524;13.422;2022-07-10T13:52:32;25.10;54.50
5711;DHT22;61291;52.524;13.422;2022-07-10T13:54:57;24.90;54.90
5711;DHT22;61291;52.524;13.422;2022-07-10T13:57:26;24.70;54.90
5711;DHT22;61291;52.524;13.422;2022-07-10T13:59:53;23.90;55.00
5711;DHT22;61291;52.524;13.422;2022-07-10T14:02:22;23.10;55.30
5711;DHT22;61291;52.524;13.422;2022-07-10T14:04:48;23.00;55.90
5711;DHT22;61291;52.524;13.422;2022-07-10T14:07:13;23.80;55.80
5711;DHT22;61291;52.524;13.422;2022-07-10T14:09:40;24.20;55.40
5711;DHT22;61291;52.524;13.422;2022-07-10T14:12:09;24.40;54.90
5711;DHT22;61291;52.524;13.422;2022-07-10T14:14:54;24.30;54.80
5711;DHT22;61291;52.524;13.422;2022-07-10T14:17:20;24.70;55.00
5711;DHT22;61291;52.524;13.422;2022-07-10T14:19:46;25.10;54.70
5711;DHT22;61291;52.524;13.422;2022-07-10T14:22:11;24.70;54.30
5711;DHT22;61291;52.524;13.422;2022-07-10T14:24:37;24.00;54.70
5711;DHT22;61291;52.524;13.422;2022-07-10T14:27:03;22.80;55.20
5711;DHT22;61291;52.524;13.422;2022-07-10T14:29:29;22.00;56.10
5711;DHT22;61291;52.524;13.422;2022-07-10T14:31:54;21.60;56.40
5711;DHT22;61291;52.524;13.422;2022-07-10T14:34:20;21.10;57.20
5711;DHT22;61291;52.524;13.422;2022-07-10T14:36:45;21.30;57.60
5711;DHT22;61291;52.524;13.422;2022-07-10T14:39:11;21.00;57.50
5711;DHT22;61291;52.524;13.422;2022-07-10T14:41:40;21.00;57.50
5711;DHT22;61291;52.524;13.422;2022-07-10T14:44:06;20.90;57.40
5711;DHT22;61291;52.524;13.422;2022-07-10T14:46:32;20.80;57.20
5711;DHT22;61291;52.524;13.422;2022-07-10T14:48:59;20.60;57.20
5711;DHT22;61291;52.524;13.422;2022-07-10T14:51:24;20.90;57.40
5711;DHT22;61291;52.524;13.422;2022-07-10T14:53:50;21.30;57.50
5711;DHT22;61291;52.524;13.422;2022-07-10T14:56:16;21.50;57.30
5711;DHT22;61291;52.524;13.422;2022-07-10T14:58:44;21.30;57.40
5711;DHT22;61291;52.524;13.422;2022-07-10T15:01:09;21.40;57.40
5711;DHT22;61291;52.524;13.422;2022-07-10T15:03:35;21.20;57.20
5711;DHT22;61291;52.524;13.422;2022-07-10T15:06:00;21.40;57.20
5711;DHT22;61291;52.524;13.422;2022-07-10T15:08:27;21.50;57.40
5711;DHT22;61291;52.524;13.422;2022-07-10T15:10:52;21.20;57.00
5711;DHT22;61291;52.524;13.422;2022-07-10T15:13:18;21.40;56.80
5711;DHT22;61291;52.524;13.422;2022-07-10T15:15:44;21.50;56.90
5711;DHT22;61291;52.524;13.422;2022-07-10T15:18:09;22.00;56.80
5711;DHT22;61291;52.524;13.422;2022-07-10T15:20:35;22.70;56.90
5711;DHT22;61291;52.524;13.422;2022-07-10T15:23:03;23.10;56.10
5711;DHT22;61291;52.524;13.422;2022-07-10T15:25:28;22.90;55.90
5711;DHT22;61291;52.524;13.422;2022-07-10T15:27:54;23.30;55.80
5711;DHT22;61291;52.524;13.422;2022-07-10T15:30:20;22.80;55.60
5711;DHT22;61291;52.524;13.422;2022-07-10T15:32:46;22.90;55.70
5711;DHT22;61291;52.524;13.422;2022-07-10T15:35:12;23.30;55.80
5711;DHT22;61291;52.524;13.422;2022-07-10T15:37:38;23.20;55.30
5711;DHT22;61291;52.524;13.422;2022-07-10T15:40:05;23.40;55.20
5711;DHT22;61291;52.524;13.422;2022-07-10T15:42:30;23.40;54.80
5711;DHT22;61291;52.524;13.422;2022-07-10T15:45:05;24.00;54.90
5711;DHT22;61291;52.524;13.422;2022-07-10T15:47:31;24.10;54.50